Saturday, August 18, 2018, 2:51 AM GMT
Back to Local

CYPQ, Peterborough Airport

Location: , , Canada Lat: 44.233
Local Time: 2:51 AM GMT ( 2:51 GMT) Lon: -78.367
Time Zone: GMT Elev: 626 ft

Show me the last for .
Show Decoded

2018-08-18 02:26 METAR CYPQ 180226Z AUTO 01004KT 9SM -RA OVC085 21/19 A2992 RMK SLP131 DENSITY
                 ALT 1400FT =
2018-08-18 02:00 METAR CYPQ 180200Z AUTO 03006KT 9SM OVC075 21/19 A2992 RMK SLP131 DENSITY ALT
                 1500FT =
2018-08-18 01:00 METAR CYPQ 180100Z AUTO 03008KT 9SM FEW065 BKN140 OVC200 22/19 A2989 RMK SLP122
                 DENSITY ALT 1500FT =
2018-08-18 00:08 METAR CYPQ 180008Z AUTO 35002KT 9SM BKN026 OVC090 23/22 A2987 RMK SLP116 DENSITY
                 ALT 1700FT =
2018-08-18 00:00 METAR CYPQ 180000Z AUTO 36003KT 9SM BKN024 BKN090 OVC230 23/22 A2987 RMK SLP116
                 DENSITY ALT 1700FT =
2018-08-17 23:53 METAR CYPQ 172353Z AUTO 35002KT 9SM BKN022 BKN090 BKN230 23/22 A2987 RMK SLP116
                 DENSITY ALT 1700FT =
2018-08-17 23:07 METAR CYPQ 172307Z AUTO 00000KT 9SM FEW080 SCT120 BKN230 23/22 A2987 RMK SLP114
                 DENSITY ALT 1700FT =
2018-08-17 23:00 METAR CYPQ 172300Z AUTO 05002KT 9SM VCTS SCT080 BKN120 BKN230 23/22 A2986 RMK
                 SLP113 DENSITY ALT 1700FT =
2018-08-17 22:45 METAR CYPQ 172245Z AUTO 00000KT 9SM TS SCT025 SCT050 OVC080 23/22 A2987 RMK
                 SLP114 DENSITY ALT 1700FT =
2018-08-17 22:34 METAR CYPQ 172234Z AUTO 18002KT 9SM SCT023 BKN028 BKN050 OVC085 23/22 A2986 RMK
                 SLP113 DENSITY ALT 1700FT =
2018-08-17 22:00 METAR CYPQ 172200Z AUTO VRB02KT 9SM BKN017 OVC080 23/22 A2986 RMK LTNG DIST E
                 SLP113 DENSITY ALT 1700FT =
2018-08-17 21:00 METAR CYPQ 172100Z AUTO VRB02KT 9SM BKN015 OVC060 23/21 A2986 RMK SLP111 DENSITY
                 ALT 1700FT =
2018-08-17 20:56 METAR CYPQ 172056Z AUTO 11003KT 9SM BKN015 OVC060 23/22 A2986 RMK SLP110 DENSITY
                 ALT 1700FT =
2018-08-17 20:49 METAR CYPQ 172049Z AUTO 13002KT 9SM -RA SCT015 OVC060 22/21 A2986 RMK SLP111
                 DENSITY ALT 1600FT =
2018-08-17 20:43 METAR CYPQ 172043Z AUTO 14004KT 9SM -RA BKN015 OVC055 22/22 A2986 RMK SLP111
                 DENSITY ALT 1600FT =
2018-08-17 20:30 METAR CYPQ 172030Z AUTO 00000KT 9SM -RA FEW013 OVC055 22/21 A2986 RMK LTNG DIST
                 E SLP113 DENSITY ALT 1600FT
2018-08-17 20:14 METAR CYPQ 172014Z AUTO VRB02KT 9SM FEW005 OVC050 22/22 A2987 RMK LTNG DIST E SE
                 SLP114 DENSITY ALT 1600FT =
2018-08-17 20:09 METAR CYPQ 172009Z AUTO VRB02KT 9SM VCTS FEW005 SCT039 OVC048 22/21 A2986 RMK
                 LTNG DIST E SE SLP112 DENSITY ALT 1600FT =
2018-08-17 20:01 METAR CYPQ 172001Z AUTO 00000KT 9SM -RA VCTS SCT005 SCT011 BKN038 OVC048 22/22
                 A2987 RMK LTNG DIST E SE SLP114 DENSITY ALT 1600FT =
2018-08-17 20:00 METAR CYPQ 172000Z AUTO 00000KT 8SM -TSRA SCT005 SCT011 BKN038 OVC048 22/22
                 A2987 RMK LTNG DIST E SE SLP114 DENSITY ALT 1600FT =
2018-08-17 19:55 METAR CYPQ 171955Z AUTO 05003KT 040V180 6SM -TSRA BR SCT005 SCT011 BKN038 OVC046
                 22/21 A2986 RMK LTNG DIST E SE SLP111 DENSITY ALT 1600FT =
2018-08-17 19:22 METAR CYPQ 171922Z AUTO 04004KT 030V090 5SM -TSRA BR OVC042 22/22 A2987 RMK LTNG
                 DIST ALQDS SLP115 DENSITY ALT 1600FT =
2018-08-17 19:00 METAR CYPQ 171900Z AUTO 03004KT 6SM -TSRA BR SCT034 OVC046 22/21 A2987 RMK LTNG
                 DIST ALQDS SLP115 DENSITY ALT 1600FT =
2018-08-17 18:58 METAR CYPQ 171858Z AUTO 03003KT 350V050 6SM -TSRA BR FEW006 SCT034 OVC046 22/21
                 A2987 RMK LTNG DIST NE E SE SLP116 DENSITY ALT 1600FT =
2018-08-17 18:52 METAR CYPQ 171852Z AUTO 36006KT 3SM TSRA BR FEW004 BKN030 OVC046 22/21 A2987 RMK
                 LTNG DIST ALQDS SLP115 DENSITY ALT 1600FT =
2018-08-17 18:51 METAR CYPQ 171851Z AUTO 36006KT 2 1/2SM TSRA BR FEW004 BKN028 OVC048 22/21 A2987
                 RMK LTNG DIST ALQDS SLP115 DENSITY ALT 1600FT =
2018-08-17 18:47 METAR CYPQ 171847Z AUTO 01006KT 2SM -TSRA BR FEW004 BKN026 OVC048 22/21 A2987
                 RMK LTNG DIST NE E W SLP115 DENSITY ALT 1600FT =
2018-08-17 18:45 METAR CYPQ 171845Z AUTO 02005KT 350V060 1 3/4SM +TSRA BR FEW004 BKN026 OVC050
                 22/21 A2986 RMK VIS VRB 1-3 LTNG DIST NE E W SLP113 DENSITY ALT 1600FT =
2018-08-17 18:43 METAR CYPQ 171843Z AUTO 02005KT 340V080 1 1/2SM +TSRA BR FEW004 BKN024 BKN030
                 OVC050 22/21 A2986 RMK LTNG DIST NE E W SLP113 DENSITY ALT 1600FT =
2018-08-17 18:41 METAR CYPQ 171841Z AUTO 36004KT 340V090 1 3/4SM TSRA BR FEW004 BKN024 OVC030
                 22/21 A2987 RMK VIS VRB 1-3 LTNG DIST NE E W SLP116 DENSITY ALT 1600FT =
2018-08-17 18:38 METAR CYPQ 171838Z AUTO 01003KT 340V120 1 3/4SM TSRA BR SCT004 SCT013 BKN026
                 OVC030 22/21 A2987 RMK VIS VRB 1 1/4-3 LTNG DIST NE E SLP117 DENSITY ALT 1600FT
                 =
2018-08-17 18:36 METAR CYPQ 171836Z AUTO VRB02KT 1 1/2SM -TSRA BR SCT004 SCT011 BKN024 OVC030
                 22/21 A2987 RMK VIS VRB 1-3 LTNG DIST NE E SLP117 DENSITY ALT 1500FT =
2018-08-17 18:33 METAR CYPQ 171833Z AUTO VRB02KT 1SM -TSRA BR FEW004 SCT009 BKN013 OVC030 22/21
                 A2988 RMK LTNG DIST NE E SLP118 DENSITY ALT 1500FT =
2018-08-17 18:32 METAR CYPQ 171832Z AUTO VRB02KT 1SM +TSRA BR SCT004 BKN011 BKN022 OVC030 22/21
                 A2988 RMK LTNG DIST NE E SLP118 DENSITY ALT 1500FT =
2018-08-17 18:28 METAR CYPQ 171828Z AUTO VRB02KT 1SM +TSRA BR FEW004 BKN009 BKN016 OVC030 22/21
                 A2987 RMK LTNG DIST NE E SLP117 DENSITY ALT 1500FT =
2018-08-17 18:26 METAR CYPQ 171826Z AUTO VRB03KT 1 1/4SM +TSRA BR SCT006 BKN012 BKN019 OVC032
                 22/21 A2988 RMK LTNG DIST NE SLP118 DENSITY ALT 1500FT =
2018-08-17 18:23 METAR CYPQ 171823Z AUTO 26004G15KT 240V360 2 1/4SM +TSRA BR SCT006 BKN015 BKN021
                 OVC029 22/21 A2988 RMK LTNG DIST NE SLP118 DENSITY ALT 1600FT =
2018-08-17 18:22 METAR CYPQ 171822Z AUTO 25005G15KT 240V360 2 1/2SM -TSRA BR SCT009 SCT015 BKN021
                 OVC029 22/21 A2988 RMK LTNG DIST NE SLP118 DENSITY ALT 1600FT =
2018-08-17 18:20 METAR CYPQ 171820Z AUTO 30007G16KT 250V010 5SM -TSRA BR FEW009 SCT015 BKN021
                 OVC029 22/21 A2988 RMK LTNG DIST NE PRESRR SLP118 DENSITY ALT 1600FT =
2018-08-17 18:15 METAR CYPQ 171815Z AUTO 35009G16KT 6SM -TSRA BR SCT014 BKN020 OVC029 22/21 A2987
                 RMK LTNG DIST NE SLP116 DENSITY ALT 1600FT =
2018-08-17 18:09 METAR CYPQ 171809Z AUTO 35012G19KT 5SM -TSRA BR SCT014 BKN020 BKN028 OVC046
                 22/21 A2987 RMK LTNG DIST NE W NW SLP114 DENSITY ALT 1600FT =
2018-08-17 18:01 METAR CYPQ 171801Z AUTO 35017KT 200V010 9SM -TSRA BKN017 BKN025 BKN035 OVC046
                 24/21 A2986 RMK LTNG DIST ALQDS SLP111 DENSITY ALT 1800FT =
2018-08-17 18:00 METAR CYPQ 171800Z AUTO 35017KT 200V010 9SM -RA VCTS FEW013 BKN017 BKN025 OVC046
                 24/22 A2986 RMK LTNG DIST ALQDS SLP111 DENSITY ALT 1800FT =
2018-08-17 17:59 METAR CYPQ 171759Z AUTO 35014G19KT 200V010 9SM -RA VCTS BKN017 BKN025 BKN034
                 24/22 A2986 RMK LTNG DIST ALQDS SLP112 DENSITY ALT 1900FT =
2018-08-17 17:56 METAR CYPQ 171756Z AUTO 25005KT 170V270 9SM VCTS BKN018 BKN025 BKN034 25/23
                 A2986 RMK LTNG DIST ALQDS SLP112 DENSITY ALT 1900FT =
2018-08-17 17:44 METAR CYPQ 171744Z AUTO 19006KT 160V220 9SM -RA VCTS SCT035 BKN046 25/23 A2986
                 RMK LTNG DIST N NE NW SLP111 DENSITY ALT 2000FT =
2018-08-17 17:19 METAR CYPQ 171719Z AUTO 22006KT 150V250 9SM VCTS SCT030 BKN037 BKN050 OVC070
                 25/22 A2987 RMK LTNG DIST ALQDS SLP115 DENSITY ALT 1900FT =
2018-08-17 17:18 METAR CYPQ 171718Z AUTO 22004KT 150V250 9SM FEW028 BKN035 BKN050 OVC070 25/23
                 A2987 RMK LTNG DIST ALQDS SLP114 DENSITY ALT 1900FT =
2018-08-17 17:08 METAR CYPQ 171708Z AUTO 19005KT 170V230 9SM -RA FEW011 BKN028 BKN044 OVC086
                 25/22 A2987 RMK LTNG DIST W NW SLP114 DENSITY ALT 1900FT =
2018-08-17 17:00 METAR CYPQ 171700Z AUTO 21006KT 170V240 9SM FEW011 BKN030 BKN044 OVC086 25/23
                 A2987 RMK LTNG DIST W NW SLP114 DENSITY ALT 1900FT =
2018-08-17 16:44 METAR CYPQ 171644Z AUTO 18008KT 9SM FEW010 SCT016 BKN031 BKN043 26/23 A2987 RMK
                 LTNG DIST N NE PRESFR SLP114 DENSITY ALT 2000FT =
2018-08-17 16:14 METAR CYPQ 171614Z AUTO 18008KT 9SM SCT013 BKN019 BKN025 OVC036 25/22 A2989 RMK
                 SLP121 DENSITY ALT 1900FT =
2018-08-17 16:10 METAR CYPQ 171610Z AUTO 19006KT 160V220 9SM SCT013 SCT019 BKN025 OVC038 25/23
                 A2989 RMK SLP121 DENSITY ALT 1900FT =
2018-08-17 16:00 METAR CYPQ 171600Z AUTO 21009KT 9SM BKN013 OVC021 24/22 A2990 RMK LTNG DIST N NE
                 SLP124 DENSITY ALT 1800FT =
2018-08-17 15:19 METAR CYPQ 171519Z AUTO 20009KT 9SM BKN013 BKN026 OVC035 24/22 A2990 RMK SLP124
                 DENSITY ALT 1800FT =
2018-08-17 15:03 METAR CYPQ 171503Z AUTO 21003KT 160V240 9SM -RA SCT011 BKN014 OVC035 24/23 A2990
                 RMK SLP126 DENSITY ALT 1800FT =
2018-08-17 15:00 METAR CYPQ 171500Z AUTO 20005KT 160V240 9SM BKN011 OVC035 24/22 A2990 RMK LTNG
                 DIST N SLP126 DENSITY ALT 1700FT =
2018-08-17 14:31 METAR CYPQ 171431Z AUTO 20005KT 7SM OVC011 23/22 A2991 RMK LTNG DIST NW SLP127
                 DENSITY ALT 1700FT =
2018-08-17 14:20 METAR CYPQ 171420Z AUTO 18006KT 6SM -RA BR BKN011 OVC015 23/22 A2991 RMK LTNG
                 DIST N SLP128 DENSITY ALT 1700FT =
2018-08-17 14:14 METAR CYPQ 171414Z AUTO 19004KT 160V230 5SM -RA BR OVC011 23/22 A2991 RMK LTNG
                 DIST N SLP128 DENSITY ALT 1700FT =
2018-08-17 14:12 METAR CYPQ 171412Z AUTO 19005KT 160V230 5SM BR OVC011 23/22 A2991 RMK SLP128
                 DENSITY ALT 1700FT =
2018-08-17 14:11 METAR CYPQ 171411Z AUTO 20004KT 160V230 6SM BR OVC011 23/22 A2991 RMK SLP128
                 DENSITY ALT 1700FT =
2018-08-17 14:00 METAR CYPQ 171400Z AUTO 18006KT 160V220 8SM BKN009 OVC012 23/22 A2991 RMK LTNG
                 DIST N SLP128 DENSITY ALT 1700FT =
2018-08-17 13:58 METAR CYPQ 171358Z AUTO 19004KT 150V220 8SM BKN009 OVC012 23/22 A2991 RMK LTNG
                 DIST N SLP128 DENSITY ALT 1700FT =
2018-08-17 13:52 METAR CYPQ 171352Z AUTO 17005KT 8SM SCT008 OVC012 23/22 A2991 RMK SLP127 DENSITY
                 ALT 1700FT =
2018-08-17 13:49 METAR CYPQ 171349Z AUTO 17003KT 8SM BKN010 BKN014 OVC032 23/22 A2991 RMK SLP127
                 DENSITY ALT 1700FT =
2018-08-17 13:47 METAR CYPQ 171347Z AUTO 19004KT 8SM BKN008 BKN012 OVC032 23/22 A2991 RMK SLP128
                 DENSITY ALT 1700FT =
2018-08-17 13:46 METAR CYPQ 171346Z AUTO 19004KT 8SM SCT008 BKN012 OVC032 23/22 A2991 RMK SLP128
                 DENSITY ALT 1600FT =
2018-08-17 13:44 METAR CYPQ 171344Z AUTO 18005KT 8SM BKN008 BKN014 OVC032 23/22 A2991 RMK SLP129
                 DENSITY ALT 1600FT =
2018-08-17 13:41 METAR CYPQ 171341Z AUTO 18005KT 8SM SCT008 BKN012 OVC032 23/22 A2991 RMK SLP129
                 DENSITY ALT 1600FT =
2018-08-17 13:00 METAR CYPQ 171300Z AUTO 17005KT 9SM OVC010 22/22 A2992 RMK SLP132 DENSITY ALT
                 1600FT =
2018-08-17 12:00 METAR CYPQ 171200Z AUTO 18006KT 8SM OVC016 22/22 A2993 RMK SLP136 DENSITY ALT
                 1500FT =
2018-08-17 11:08 METAR CYPQ 171108Z AUTO 18004KT 6SM BR FEW009 OVC018 22/21 A2994 RMK SLP138
                 DENSITY ALT 1500FT =
2018-08-17 11:00 METAR CYPQ 171100Z AUTO VRB02KT 4SM BR FEW008 OVC020 22/21 A2994 RMK SLP139
                 DENSITY ALT 1500FT =
2018-08-17 10:53 METAR CYPQ 171053Z AUTO 00000KT 5SM BR OVC020 22/21 A2995 RMK SLP140 DENSITY ALT
                 1400FT =
2018-08-17 10:01 METAR CYPQ 171001Z AUTO 18002KT 9SM BKN010 BKN021 BKN044 OVC150 22/21 A2993 RMK
                 SLP136 DENSITY ALT 1500FT =
2018-08-17 10:00 METAR CYPQ 171000Z AUTO 18002KT 9SM -RA BKN010 BKN021 BKN044 OVC150 22/21 A2993
                 RMK SLP136 DENSITY ALT 1500FT =
2018-08-17 09:45 METAR CYPQ 170945Z AUTO 15003KT 110V170 8SM -RA SCT007 BKN017 BKN044 OVC150
                 21/21 A2992 RMK SLP132 DENSITY ALT 1500FT =
2018-08-17 09:40 METAR CYPQ 170940Z AUTO 13004KT 110V170 6SM -RA BR BKN009 BKN048 BKN075 OVC150
                 21/21 A2992 RMK PRESFR SLP131 DENSITY ALT 1500FT =
2018-08-17 09:34 METAR CYPQ 170934Z AUTO 16005KT 140V240 4SM -RA BR FEW003 BKN009 OVC016 21/21
                 A2993 RMK SLP133 DENSITY ALT 1500FT =
2018-08-17 09:30 METAR CYPQ 170930Z AUTO 17005KT 150V250 3SM RA BR SCT005 BKN013 OVC075 21/21
                 A2993 RMK SLP136 DENSITY ALT 1400FT =
2018-08-17 09:28 METAR CYPQ 170928Z AUTO 19004KT 130V250 3SM RA BR FEW003 BKN008 BKN017 OVC075
                 21/21 A2994 RMK SLP137 DENSITY ALT 1400FT =
2018-08-17 09:27 METAR CYPQ 170927Z AUTO 20003KT 130V250 3SM RA BR BKN006 BKN017 BKN050 OVC075
                 21/21 A2994 RMK SLP137 DENSITY ALT 1400FT =
2018-08-17 09:26 METAR CYPQ 170926Z AUTO 22004KT 130V250 3SM -RA BR SCT004 BKN009 BKN017 OVC075
                 21/21 A2994 RMK SLP137 DENSITY ALT 1400FT =
2018-08-17 09:24 METAR CYPQ 170924Z AUTO 20004KT 130V250 3SM -RA BR BKN007 BKN017 BKN055 OVC076
                 21/21 A2994 RMK SLP138 DENSITY ALT 1400FT =
2018-08-17 09:09 METAR CYPQ 170909Z AUTO 16003KT 3SM -RA BR SCT005 BKN019 BKN045 OVC075 21/21
                 A2995 RMK SLP140 DENSITY ALT 1400FT =
2018-08-17 09:00 METAR CYPQ 170900Z AUTO 17003KT 140V270 3SM RA VCTS BR SCT005 BKN019 BKN033
                 OVC040 21/21 A2995 RMK LTNG DIST S SLP143 DENSITY ALT 1400FT =
2018-08-17 08:53 METAR CYPQ 170853Z AUTO 00000KT 3SM RA VCTS BR SCT005 BKN019 BKN028 OVC037 21/21
                 A2995 RMK LTNG DIST S SLP143 DENSITY ALT 1400FT =
2018-08-17 08:50 METAR CYPQ 170850Z AUTO VRB02KT 3SM RA BR FEW005 BKN021 OVC037 21/21 A2995 RMK
                 SLP143 DENSITY ALT 1400FT =
2018-08-17 08:49 METAR CYPQ 170849Z AUTO VRB02KT 3SM RA BR FEW005 SCT021 OVC037 21/21 A2995 RMK
                 SLP143 DENSITY ALT 1400FT =
2018-08-17 08:43 METAR CYPQ 170843Z AUTO 23003KT 2 1/2SM RA BR SCT020 SCT024 BKN033 OVC070 22/21
                 A2996 RMK SLP144 DENSITY ALT 1400FT =
2018-08-17 08:39 METAR CYPQ 170839Z AUTO 21002KT 2 1/2SM +RA BR FEW020 SCT025 BKN033 OVC069 22/21
                 A2996 RMK SLP144 DENSITY ALT 1400FT =
2018-08-17 08:30 METAR CYPQ 170830Z AUTO 21004KT 160V230 4SM -RA BR FEW020 BKN025 BKN039 OVC070
                 22/21 A2996 RMK SLP146 DENSITY ALT 1400FT =
2018-08-17 08:14 METAR CYPQ 170814Z AUTO 16003KT 5SM -RA VCTS BR FEW029 SCT037 BKN047 OVC070
                 22/21 A2996 RMK SLP145 DENSITY ALT 1400FT =
2018-08-17 08:00 METAR CYPQ 170800Z AUTO 16003KT 120V200 4SM -RA BR SCT027 BKN036 OVC050 22/21
                 A2996 RMK LTNG DIST S SLP146 DENSITY ALT 1400FT =
2018-08-17 07:43 METAR CYPQ 170743Z AUTO VRB02KT 3SM -RA BR BKN027 OVC055 21/21 A2997 RMK SLP147
                 DENSITY ALT 1400FT =
2018-08-17 07:22 METAR CYPQ 170722Z AUTO 00000KT 2 1/2SM -RA BR FEW029 OVC055 21/21 A2997 RMK
                 SLP148 DENSITY ALT 1300FT =
2018-08-17 07:14 METAR CYPQ 170714Z AUTO 00000KT 3SM -RA BR FEW029 SCT047 OVC055 21/21 A2997 RMK
                 SLP148 DENSITY ALT 1300FT =
2018-08-17 07:00 METAR CYPQ 170700Z AUTO 00000KT 4SM BR OVC055 21/21 A2998 RMK SLP150 DENSITY ALT
                 1400FT =
2018-08-17 06:55 METAR CYPQ 170655Z AUTO 00000KT 5SM BR OVC055 21/21 A2998 RMK SLP150 DENSITY ALT
                 1300FT =
2018-08-17 06:32 METAR CYPQ 170632Z AUTO 00000KT 5SM -RA BR BKN055 OVC074 21/20 A2998 RMK SLP152
                 DENSITY ALT 1300FT =
2018-08-17 06:30 METAR CYPQ 170630Z AUTO 00000KT 7SM -RA SCT060 OVC075 21/20 A2998 RMK SLP152
                 DENSITY ALT 1300FT =
2018-08-17 06:09 METAR CYPQ 170609Z AUTO 00000KT 6SM BR BKN075 OVC094 21/20 A2999 RMK SLP153
                 DENSITY ALT 1300FT =
2018-08-17 06:00 METAR CYPQ 170600Z AUTO 00000KT 4SM BR BKN075 OVC092 20/20 A2999 RMK SLP153
                 DENSITY ALT 1300FT =
2018-08-17 05:00 METAR CYPQ 170500Z AUTO VRB02KT 4SM BR FEW095 BKN160 20/20 A3001 RMK SLP160
                 DENSITY ALT 1200FT =
2018-08-17 04:00 METAR CYPQ 170400Z AUTO 00000KT 4SM BR OVC046 20/20 A3002 RMK SLP164 DENSITY ALT
                 1200FT =
2018-08-17 03:56 METAR CYPQ 170356Z AUTO 00000KT 3SM BR BKN046 20/20 A3002 RMK SLP164 DENSITY ALT
                 1200FT =
2018-08-17 03:36 METAR CYPQ 170336Z AUTO 00000KT 2 1/2SM BR FEW042 20/20 A3002 RMK VIS VRB 1
                 1/2-3 SLP165 DENSITY ALT 1200FT =
2018-08-17 03:08 METAR CYPQ 170308Z AUTO 00000KT 5SM BR FEW095 20/19 A3002 RMK SLP164 DENSITY ALT
                 1100FT =
2018-08-17 03:00 METAR CYPQ 170300Z AUTO 00000KT 7SM FEW043 SCT095 20/20 A3002 RMK SLP164 DENSITY
                 ALT 1200FT =

Support USWX by starting your Amazon purchase here.